createdAt,value
2018-08-03T00:00:13.310Z,26.41
2018-08-03T00:02:42.775Z,26.34
2018-08-03T00:05:11.868Z,26.30
2018-08-03T00:07:40.982Z,26.32
2018-08-03T00:10:10.555Z,26.25
2018-08-03T00:12:39.644Z,26.21
2018-08-03T00:15:08.995Z,26.21
2018-08-03T00:17:38.236Z,26.14
2018-08-03T00:20:08.213Z,26.11
2018-08-03T00:22:37.289Z,26.08
2018-08-03T00:25:07.589Z,26.07
2018-08-03T00:27:36.665Z,26.06
2018-08-03T00:30:06.316Z,26.00
2018-08-03T00:32:35.793Z,25.93
2018-08-03T00:35:05.474Z,25.89
2018-08-03T00:37:34.548Z,25.89
2018-08-03T00:40:03.734Z,25.84
2018-08-03T00:42:33.511Z,25.84
2018-08-03T00:45:02.651Z,25.79
2018-08-03T00:47:31.715Z,25.72
2018-08-03T00:50:01.207Z,25.70
2018-08-03T00:52:30.239Z,25.68
2018-08-03T00:54:59.529Z,25.68
2018-08-03T00:57:28.721Z,25.64
2018-08-03T00:59:57.807Z,25.69
2018-08-03T01:02:26.889Z,25.60
2018-08-03T01:04:56.187Z,25.51
2018-08-03T01:07:25.475Z,25.45
2018-08-03T01:09:54.549Z,25.45
2018-08-03T01:12:24.272Z,25.40
2018-08-03T01:14:53.375Z,25.37
2018-08-03T01:17:22.468Z,25.30
2018-08-03T01:19:51.748Z,25.33
2018-08-03T01:22:20.979Z,25.29
2018-08-03T01:24:50.017Z,25.25
2018-08-03T01:27:19.104Z,25.20
2018-08-03T01:29:48.649Z,25.19
2018-08-03T01:32:17.723Z,25.17
2018-08-03T01:34:46.778Z,25.12
2018-08-03T01:37:16.388Z,25.15
2018-08-03T01:39:45.532Z,25.11
2018-08-03T01:42:14.591Z,25.03
2018-08-03T01:44:44.582Z,25.02
2018-08-03T01:47:13.875Z,24.93
2018-08-03T01:49:42.929Z,24.96
2018-08-03T01:52:12.033Z,24.94
2018-08-03T01:54:41.164Z,24.87
2018-08-03T01:57:30.360Z,24.88
2018-08-03T02:00:02.354Z,24.83
2018-08-03T02:02:32.001Z,24.85
2018-08-03T02:05:01.934Z,24.76
2018-08-03T02:07:31.317Z,24.76
2018-08-03T02:10:00.554Z,24.77
2018-08-03T02:12:29.613Z,24.78
2018-08-03T02:14:58.710Z,24.74
2018-08-03T02:17:27.788Z,24.72
2018-08-03T02:19:56.875Z,24.69
2018-08-03T02:22:26.199Z,24.72
2018-08-03T02:24:55.683Z,24.67
2018-08-03T02:27:24.970Z,24.62
2018-08-03T02:29:54.048Z,24.63
2018-08-03T02:32:23.101Z,24.58
2018-08-03T02:34:52.999Z,24.56
2018-08-03T02:37:22.385Z,24.55
2018-08-03T02:39:51.515Z,24.55
2018-08-03T02:42:20.597Z,24.52
2018-08-03T02:44:50.210Z,24.49
2018-08-03T02:47:19.279Z,24.45
2018-08-03T02:49:48.346Z,24.46
2018-08-03T02:52:17.588Z,24.46
2018-08-03T02:54:46.696Z,24.47
2018-08-03T02:57:15.891Z,24.45
2018-08-03T02:59:44.973Z,24.43
2018-08-03T03:02:14.079Z,24.45
2018-08-03T03:04:43.564Z,24.42
2018-08-03T03:07:13.081Z,24.38
2018-08-03T03:09:42.146Z,24.34
2018-08-03T03:12:11.260Z,24.32
2018-08-03T03:14:40.360Z,24.31
2018-08-03T03:17:09.774Z,24.28
2018-08-03T03:19:39.023Z,24.23
2018-08-03T03:22:08.249Z,24.25
2018-08-03T03:24:37.561Z,24.20
2018-08-03T03:27:06.640Z,24.19
2018-08-03T03:29:35.915Z,24.18
2018-08-03T03:32:05.257Z,24.17
2018-08-03T03:34:34.518Z,24.20
2018-08-03T03:37:03.576Z,24.22
2018-08-03T03:39:33.356Z,24.19
2018-08-03T03:42:02.887Z,24.21
2018-08-03T03:44:31.994Z,24.18
2018-08-03T03:47:01.551Z,24.20
2018-08-03T03:49:30.643Z,24.18
2018-08-03T03:52:01.323Z,24.18
2018-08-03T03:54:30.457Z,24.15
2018-08-03T03:56:59.590Z,24.10
2018-08-03T03:59:29.198Z,24.06
2018-08-03T04:01:58.299Z,24.11
2018-08-03T04:04:27.658Z,24.11
2018-08-03T04:06:56.887Z,24.05
2018-08-03T04:09:25.995Z,24.05
2018-08-03T04:11:55.065Z,24.01
2018-08-03T04:14:24.403Z,23.99
2018-08-03T04:16:53.478Z,23.99
2018-08-03T04:19:22.554Z,23.99
2018-08-03T04:21:52.185Z,23.96
2018-08-03T04:24:21.271Z,23.97
2018-08-03T04:26:50.344Z,23.92
2018-08-03T04:29:19.782Z,23.92
2018-08-03T04:31:48.877Z,23.95
2018-08-03T04:34:18.014Z,23.94
2018-08-03T04:36:47.179Z,23.99
2018-08-03T04:39:16.301Z,24.00
2018-08-03T04:41:46.733Z,23.95
2018-08-03T04:44:16.042Z,23.97
2018-08-03T04:46:45.382Z,23.99
2018-08-03T04:49:15.091Z,24.00
2018-08-03T04:51:44.261Z,24.11
2018-08-03T04:54:13.364Z,24.08
2018-08-03T04:56:42.697Z,24.11
2018-08-03T04:59:11.839Z,24.11
2018-08-03T05:01:41.039Z,24.13
2018-08-03T05:04:10.397Z,24.19
2018-08-03T05:06:39.530Z,24.25
2018-08-03T05:09:08.925Z,24.27
2018-08-03T05:11:38.190Z,24.28
2018-08-03T05:14:07.300Z,24.30
2018-08-03T05:16:36.379Z,24.29
2018-08-03T05:19:06.204Z,24.31
2018-08-03T05:21:35.345Z,24.34
2018-08-03T05:24:04.530Z,24.39
2018-08-03T05:26:35.046Z,24.42
2018-08-03T05:29:04.146Z,24.42
2018-08-03T05:31:33.250Z,24.43
2018-08-03T05:34:02.413Z,24.48
2018-08-03T05:36:31.524Z,24.49
2018-08-03T05:39:03.633Z,24.48
2018-08-03T05:41:32.872Z,24.48
2018-08-03T05:44:01.996Z,24.50
2018-08-03T05:46:31.896Z,24.54
2018-08-03T05:49:01.143Z,24.59
2018-08-03T05:51:30.241Z,24.66
2018-08-03T05:53:59.651Z,24.71
2018-08-03T05:56:29.241Z,24.75
2018-08-03T05:58:58.779Z,24.78
2018-08-03T06:01:27.956Z,24.82
2018-08-03T06:03:57.049Z,24.88
2018-08-03T06:06:32.493Z,24.90
2018-08-03T06:09:01.579Z,24.96
2018-08-03T06:11:30.923Z,25.02
2018-08-03T06:14:00.536Z,24.97
2018-08-03T06:16:29.884Z,24.90
2018-08-03T06:18:59.346Z,24.92
2018-08-03T06:21:30.241Z,24.92
2018-08-03T06:24:00.404Z,24.93
2018-08-03T06:26:29.675Z,24.99
2018-08-03T06:28:59.191Z,25.03
2018-08-03T06:31:28.607Z,25.11
2018-08-03T06:33:57.682Z,25.19
2018-08-03T06:36:26.801Z,25.30
2018-08-03T06:38:56.082Z,25.38
2018-08-03T06:41:25.733Z,25.50
2018-08-03T06:43:54.989Z,25.62
2018-08-03T06:46:25.519Z,25.69
2018-08-03T06:48:54.922Z,25.74
2018-08-03T06:51:24.114Z,25.79
2018-08-03T06:53:53.734Z,25.88
2018-08-03T06:56:23.862Z,25.94
2018-08-03T06:58:53.884Z,26.03
2018-08-03T07:01:22.964Z,26.14
2018-08-03T07:03:52.244Z,26.22
2018-08-03T07:06:21.605Z,26.31
2018-08-03T07:08:50.693Z,26.40
2018-08-03T07:11:19.749Z,26.50
2018-08-03T07:13:49.122Z,26.55
2018-08-03T07:16:19.075Z,26.60
2018-08-03T07:18:48.186Z,26.68
2018-08-03T07:21:23.458Z,26.75
2018-08-03T07:23:52.656Z,26.79
2018-08-03T07:26:21.726Z,26.81
2018-08-03T07:28:51.478Z,26.88
2018-08-03T07:31:20.760Z,26.93
2018-08-03T07:33:50.223Z,26.98
2018-08-03T07:36:19.513Z,27.03
2018-08-03T07:38:49.088Z,27.04
2018-08-03T07:41:18.175Z,27.13
2018-08-03T07:43:47.582Z,27.22
2018-08-03T07:46:16.679Z,27.29
2018-08-03T07:48:45.780Z,27.37
2018-08-03T07:51:15.006Z,27.45
2018-08-03T07:53:44.081Z,27.50
2018-08-03T07:56:13.728Z,27.51
2018-08-03T07:58:43.008Z,27.55
2018-08-03T08:01:12.120Z,27.64
2018-08-03T08:03:41.388Z,27.79
2018-08-03T08:06:10.844Z,27.90
2018-08-03T08:08:39.913Z,27.92
2018-08-03T08:11:08.996Z,28.02
2018-08-03T08:13:38.205Z,28.09
2018-08-03T08:16:07.463Z,28.14
2018-08-03T08:18:36.554Z,28.24
2018-08-03T08:21:05.699Z,28.37
2018-08-03T08:23:34.889Z,28.42
2018-08-03T08:26:04.004Z,28.51
2018-08-03T08:28:33.118Z,28.58
2018-08-03T08:31:02.338Z,28.68
2018-08-03T08:33:31.844Z,28.71
2018-08-03T08:36:00.906Z,28.74
2018-08-03T08:38:31.293Z,28.79
2018-08-03T08:41:00.378Z,28.89
2018-08-03T08:43:29.531Z,29.01
2018-08-03T08:45:59.397Z,29.08
2018-08-03T08:48:28.456Z,29.13
2018-08-03T08:50:57.556Z,29.20
2018-08-03T08:53:27.033Z,29.25
2018-08-03T08:55:56.099Z,29.27
2018-08-03T08:58:25.197Z,29.31
2018-08-03T09:00:54.783Z,29.41
2018-08-03T09:03:23.796Z,29.47
2018-08-03T09:05:52.891Z,29.60
2018-08-03T09:08:22.124Z,29.70
2018-08-03T09:10:51.306Z,29.76
2018-08-03T09:13:20.483Z,29.79
2018-08-03T09:15:49.937Z,29.84
2018-08-03T09:18:19.080Z,29.87
2018-08-03T09:20:48.250Z,29.93
2018-08-03T09:23:17.354Z,29.91
2018-08-03T09:25:46.443Z,30.04
2018-08-03T09:28:15.747Z,30.13
2018-08-03T09:30:44.808Z,30.28
2018-08-03T09:33:13.882Z,30.37
2018-08-03T09:35:43.376Z,30.32
2018-08-03T09:38:16.838Z,30.33
2018-08-03T09:40:45.915Z,30.38
2018-08-03T09:43:15.163Z,30.42
2018-08-03T09:45:44.325Z,30.53
2018-08-03T09:48:13.456Z,30.61
2018-08-03T09:50:43.048Z,30.68
2018-08-03T09:53:12.162Z,30.72
2018-08-03T09:55:41.357Z,30.78
2018-08-03T09:58:10.623Z,30.90
2018-08-03T10:00:45.172Z,30.98
2018-08-03T10:03:14.360Z,31.02
2018-08-03T10:05:43.476Z,30.99
2018-08-03T10:08:12.860Z,30.99
2018-08-03T10:10:41.954Z,31.00
2018-08-03T10:13:11.182Z,31.00
2018-08-03T10:15:41.339Z,31.03
2018-08-03T10:18:10.549Z,31.13
2018-08-03T10:20:39.758Z,31.21
2018-08-03T10:23:09.464Z,31.34
2018-08-03T10:25:38.532Z,31.52
2018-08-03T10:28:07.680Z,31.63
2018-08-03T10:30:36.974Z,31.67
2018-08-03T10:33:06.073Z,31.71
2018-08-03T10:35:35.352Z,31.71
2018-08-03T10:38:04.644Z,31.75
2018-08-03T10:40:33.721Z,31.73
2018-08-03T10:43:02.898Z,31.75
2018-08-03T10:45:32.163Z,31.87
2018-08-03T10:48:01.448Z,31.84
2018-08-03T10:50:30.844Z,31.83
2018-08-03T10:53:00.246Z,31.79
2018-08-03T10:55:29.331Z,31.79
2018-08-03T10:57:58.479Z,32.00
2018-08-03T11:00:29.571Z,31.99
2018-08-03T11:02:59.237Z,32.04
2018-08-03T11:05:28.871Z,32.04
2018-08-03T11:07:58.733Z,32.02
2018-08-03T11:10:27.816Z,32.01
2018-08-03T11:12:56.919Z,32.02
2018-08-03T11:15:26.407Z,31.97
2018-08-03T11:17:55.514Z,31.95
2018-08-03T11:20:24.594Z,32.02
2018-08-03T11:22:53.851Z,32.03
2018-08-03T11:25:23.058Z,32.09
2018-08-03T11:27:52.182Z,32.21
2018-08-03T11:30:21.711Z,32.36
2018-08-03T11:32:51.572Z,32.48
2018-08-03T11:35:20.645Z,32.63
2018-08-03T11:37:50.192Z,32.68
2018-08-03T11:40:19.247Z,32.80
2018-08-03T11:42:48.334Z,32.76
2018-08-03T11:45:17.430Z,32.80
2018-08-03T11:47:46.869Z,32.92
2018-08-03T11:50:15.954Z,33.06
2018-08-03T11:52:45.507Z,33.12
2018-08-03T11:55:14.575Z,33.57
2018-08-03T11:57:43.652Z,34.08
2018-08-03T12:00:12.884Z,34.59
2018-08-03T12:02:41.974Z,34.68
2018-08-03T12:05:11.099Z,35.22
2018-08-03T12:07:40.871Z,35.29
2018-08-03T12:10:09.947Z,35.12
2018-08-03T12:12:39.176Z,35.40
2018-08-03T12:15:08.501Z,35.50
2018-08-03T12:17:38.091Z,35.87
2018-08-03T12:20:07.453Z,35.97
2018-08-03T12:22:36.892Z,35.89
2018-08-03T12:25:06.030Z,35.98
2018-08-03T12:27:35.175Z,35.84
2018-08-03T12:30:05.095Z,36.20
2018-08-03T12:32:34.178Z,36.23
2018-08-03T12:35:03.944Z,36.33
2018-08-03T12:37:33.510Z,37.20
2018-08-03T12:40:02.638Z,37.27
2018-08-03T12:42:31.690Z,37.61
2018-08-03T12:45:01.043Z,37.60
2018-08-03T12:47:30.140Z,37.57
2018-08-03T12:49:59.394Z,37.74
2018-08-03T12:52:28.624Z,38.28
2018-08-03T12:54:57.311Z,37.84
2018-08-03T12:57:26.626Z,37.97
2018-08-03T12:59:56.072Z,38.26
2018-08-03T13:02:25.206Z,38.29
2018-08-03T13:04:54.511Z,38.20
2018-08-03T13:07:23.792Z,37.69
2018-08-03T13:09:52.892Z,37.72
2018-08-03T13:12:22.295Z,37.81
2018-08-03T13:14:51.399Z,38.35
2018-08-03T13:17:20.590Z,38.50
2018-08-03T13:19:49.782Z,38.99
2018-08-03T13:22:23.012Z,38.82
2018-08-03T13:24:52.785Z,39.00
2018-08-03T13:27:21.861Z,38.51
2018-08-03T13:29:51.005Z,39.13
2018-08-03T13:32:20.263Z,38.95
2018-08-03T13:34:49.393Z,39.09
2018-08-03T13:37:18.499Z,39.28
2018-08-03T13:39:47.709Z,39.66
2018-08-03T13:42:16.804Z,40.26
2018-08-03T13:44:46.026Z,40.15
2018-08-03T13:47:15.287Z,40.82
2018-08-03T13:49:44.402Z,41.07
2018-08-03T13:52:13.562Z,41.42
2018-08-03T13:54:42.871Z,41.71
2018-08-03T13:57:12.611Z,41.09
2018-08-03T13:59:41.757Z,40.69
2018-08-03T14:02:18.427Z,40.16
2018-08-03T14:04:48.127Z,40.45
2018-08-03T14:07:17.253Z,39.59
2018-08-03T14:09:47.399Z,40.17
2018-08-03T14:12:16.579Z,40.33
2018-08-03T14:14:45.753Z,40.72
2018-08-03T14:17:15.363Z,40.87
2018-08-03T14:19:44.453Z,40.87
2018-08-03T14:22:13.548Z,40.82
2018-08-03T14:24:43.055Z,41.22
2018-08-03T14:27:12.150Z,41.41
2018-08-03T14:29:41.218Z,40.65
2018-08-03T14:32:10.625Z,40.63
2018-08-03T14:34:39.789Z,41.09
2018-08-03T14:37:08.937Z,41.08
2018-08-03T14:39:38.251Z,41.12
2018-08-03T14:42:07.385Z,40.86
2018-08-03T14:44:36.498Z,41.05
2018-08-03T14:47:05.841Z,41.51
2018-08-03T14:49:35.171Z,41.05
2018-08-03T14:52:08.251Z,41.60
2018-08-03T14:54:37.424Z,41.61
2018-08-03T14:57:06.520Z,41.47
2018-08-03T14:59:36.639Z,41.44
2018-08-03T15:02:05.923Z,41.29
2018-08-03T15:04:35.706Z,41.53
2018-08-03T15:07:05.261Z,41.67
2018-08-03T15:09:34.318Z,41.66
2018-08-03T15:12:03.457Z,41.41
2018-08-03T15:14:32.752Z,41.14
2018-08-03T15:17:01.862Z,40.82
2018-08-03T15:19:30.970Z,40.73
2018-08-03T15:22:00.227Z,40.98
2018-08-03T15:24:29.830Z,40.63
2018-08-03T15:26:58.950Z,39.64
2018-08-03T15:29:28.040Z,39.50
2018-08-03T15:31:57.330Z,39.29
2018-08-03T15:34:26.459Z,39.39
2018-08-03T15:36:55.600Z,39.39
2018-08-03T15:39:25.107Z,39.06
2018-08-03T15:41:54.193Z,38.79
2018-08-03T15:44:23.356Z,38.56
2018-08-03T15:46:52.625Z,38.44
2018-08-03T15:49:21.919Z,38.40
2018-08-03T15:51:51.008Z,38.09
2018-08-03T15:54:20.322Z,37.76
2018-08-03T15:56:49.434Z,37.62
2018-08-03T15:59:18.509Z,37.51
2018-08-03T16:01:48.638Z,37.35
2018-08-03T16:04:17.712Z,37.21
2018-08-03T16:06:46.875Z,37.12
2018-08-03T16:09:16.125Z,36.95
2018-08-03T16:11:45.262Z,36.98
2018-08-03T16:14:14.362Z,36.84
2018-08-03T16:16:43.819Z,36.69
2018-08-03T16:19:12.881Z,36.66
2018-08-03T16:21:42.152Z,36.57
2018-08-03T16:24:12.109Z,36.52
2018-08-03T16:26:41.230Z,36.33
2018-08-03T16:29:11.129Z,36.24
2018-08-03T16:31:40.525Z,36.14
2018-08-03T16:34:09.270Z,36.13
2018-08-03T16:36:38.336Z,36.08
2018-08-03T16:39:09.971Z,36.08
2018-08-03T16:41:39.353Z,36.10
2018-08-03T16:44:08.440Z,36.08
2018-08-03T16:46:37.777Z,35.98
2018-08-03T16:49:07.477Z,35.76
2018-08-03T16:51:37.673Z,35.65
2018-08-03T16:54:06.802Z,35.63
2018-08-03T16:56:35.987Z,35.54
2018-08-03T16:59:05.378Z,35.51
2018-08-03T17:01:34.446Z,35.47
2018-08-03T17:04:03.539Z,35.42
2018-08-03T17:06:33.013Z,35.28
2018-08-03T17:09:02.104Z,35.33
2018-08-03T17:11:31.184Z,35.26
2018-08-03T17:14:00.466Z,35.15
2018-08-03T17:16:29.558Z,35.01
2018-08-03T17:18:59.791Z,34.98
2018-08-03T17:21:28.866Z,34.98
2018-08-03T17:23:58.120Z,34.92
2018-08-03T17:26:27.387Z,34.79
2018-08-03T17:28:56.462Z,34.77
2018-08-03T17:31:25.504Z,34.65
2018-08-03T17:33:55.029Z,34.63
2018-08-03T17:36:24.618Z,34.61
2018-08-03T17:38:54.097Z,34.55
2018-08-03T17:41:23.373Z,34.46
2018-08-03T17:43:52.677Z,34.37
2018-08-03T17:46:21.776Z,34.32
2018-08-03T17:48:51.709Z,34.29
2018-08-03T17:51:21.007Z,34.30
2018-08-03T17:53:50.098Z,34.24
2018-08-03T17:56:19.549Z,34.18
2018-08-03T17:58:48.705Z,34.07
2018-08-03T18:01:17.841Z,34.08
2018-08-03T18:03:47.982Z,34.03
2018-08-03T18:06:17.264Z,33.98
2018-08-03T18:08:46.813Z,33.90
2018-08-03T18:11:15.537Z,33.87
2018-08-03T18:13:44.642Z,33.86
2018-08-03T18:16:13.927Z,33.72
2018-08-03T18:18:43.087Z,33.69
2018-08-03T18:21:13.421Z,33.60
2018-08-03T18:23:42.524Z,33.52
2018-08-03T18:26:11.731Z,33.54
2018-08-03T18:28:40.998Z,33.40
2018-08-03T18:31:10.075Z,33.36
2018-08-03T18:33:39.414Z,33.30
2018-08-03T18:36:08.479Z,33.28
2018-08-03T18:38:37.587Z,33.28
2018-08-03T18:41:07.103Z,33.27
2018-08-03T18:43:36.205Z,33.17
2018-08-03T18:46:05.670Z,33.12
2018-08-03T18:48:35.015Z,33.10
2018-08-03T18:51:04.403Z,33.04
2018-08-03T18:53:34.061Z,32.91
2018-08-03T18:56:03.262Z,32.85
2018-08-03T18:58:32.377Z,32.82
2018-08-03T19:01:01.873Z,32.77
2018-08-03T19:03:30.976Z,32.68
2018-08-03T19:06:00.101Z,32.70
2018-08-03T19:08:29.609Z,32.62
2018-08-03T19:10:58.707Z,32.62
2018-08-03T19:13:27.423Z,32.58
2018-08-03T19:15:57.333Z,32.55
2018-08-03T19:18:26.827Z,32.44
2018-08-03T19:20:55.941Z,32.45
2018-08-03T19:23:25.040Z,32.41
2018-08-03T19:25:54.412Z,32.36
2018-08-03T19:28:23.498Z,32.31
2018-08-03T19:30:52.796Z,32.23
2018-08-03T19:33:21.926Z,32.12
2018-08-03T19:35:51.029Z,32.15
2018-08-03T19:38:21.024Z,32.09
2018-08-03T19:40:50.168Z,32.06
2018-08-03T19:43:19.238Z,32.03
2018-08-03T19:45:48.564Z,31.95
2018-08-03T19:48:17.621Z,31.95
2018-08-03T19:50:46.712Z,31.88
2018-08-03T19:53:16.301Z,31.84
2018-08-03T19:55:45.598Z,31.75
2018-08-03T19:58:14.691Z,31.73
2018-08-03T20:00:43.989Z,31.73
2018-08-03T20:03:13.343Z,31.65
2018-08-03T20:05:42.788Z,31.60
2018-08-03T20:08:11.857Z,31.64
2018-08-03T20:10:41.183Z,31.59
2018-08-03T20:13:10.847Z,31.54
2018-08-03T20:15:40.702Z,31.49
2018-08-03T20:18:09.849Z,31.43
2018-08-03T20:20:39.327Z,31.37
2018-08-03T20:23:08.450Z,31.29
2018-08-03T20:25:37.639Z,31.27
2018-08-03T20:28:06.971Z,31.23
2018-08-03T20:30:36.155Z,31.16
2018-08-03T20:33:05.205Z,31.11
2018-08-03T20:35:34.392Z,31.10
2018-08-03T20:38:04.502Z,30.99
2018-08-03T20:40:33.601Z,31.00
2018-08-03T20:43:03.098Z,30.92
2018-08-03T20:45:32.213Z,30.87
2018-08-03T20:48:01.312Z,30.81
2018-08-03T20:50:30.723Z,30.85
2018-08-03T20:53:00.221Z,30.80
2018-08-03T20:55:29.366Z,30.73
2018-08-03T20:57:58.487Z,30.69
2018-08-03T21:00:27.795Z,30.60
2018-08-03T21:02:57.656Z,30.52
2018-08-03T21:05:26.820Z,30.48
2018-08-03T21:07:56.348Z,30.42
2018-08-03T21:10:25.439Z,30.40
2018-08-03T21:12:54.743Z,30.37
2018-08-03T21:15:24.213Z,30.38
2018-08-03T21:17:53.263Z,30.35
2018-08-03T21:20:22.312Z,30.30
2018-08-03T21:22:51.815Z,30.30
2018-08-03T21:25:20.969Z,30.33
2018-08-03T21:27:50.108Z,30.25
2018-08-03T21:30:19.479Z,30.23
2018-08-03T21:32:48.532Z,30.21
2018-08-03T21:35:17.654Z,30.17
2018-08-03T21:37:46.575Z,30.11
2018-08-03T21:40:15.707Z,30.07
2018-08-03T21:42:44.775Z,30.06
2018-08-03T21:45:14.077Z,29.97
2018-08-03T21:47:43.324Z,29.93
2018-08-03T21:50:12.390Z,29.85
2018-08-03T21:52:41.846Z,29.79
2018-08-03T21:55:10.911Z,29.73
2018-08-03T21:57:39.964Z,29.78
2018-08-03T22:00:12.607Z,29.69
2018-08-03T22:02:41.784Z,29.73
2018-08-03T22:05:11.502Z,29.64
2018-08-03T22:07:40.744Z,29.62
2018-08-03T22:10:09.813Z,29.60
2018-08-03T22:12:38.967Z,29.55
2018-08-03T22:15:08.649Z,29.53
2018-08-03T22:17:37.864Z,29.52
2018-08-03T22:20:07.021Z,29.47
2018-08-03T22:22:36.573Z,29.42
2018-08-03T22:25:07.072Z,29.48
2018-08-03T22:27:36.145Z,29.50
2018-08-03T22:30:05.951Z,29.40
2018-08-03T22:32:35.247Z,29.37
2018-08-03T22:35:05.313Z,29.33
2018-08-03T22:37:34.625Z,29.30
2018-08-03T22:40:04.517Z,29.28
2018-08-03T22:42:33.592Z,29.24
2018-08-03T22:45:02.742Z,29.22
2018-08-03T22:47:32.020Z,29.19
2018-08-03T22:50:01.219Z,29.14
2018-08-03T22:52:30.266Z,29.14
2018-08-03T22:54:59.612Z,29.12
2018-08-03T22:57:28.712Z,29.12
2018-08-03T22:59:57.829Z,29.09
2018-08-03T23:02:27.306Z,29.10
2018-08-03T23:04:56.419Z,29.06
2018-08-03T23:07:25.455Z,29.10
2018-08-03T23:09:54.767Z,29.06
2018-08-03T23:12:24.098Z,29.03
2018-08-03T23:14:53.195Z,28.97
2018-08-03T23:17:22.279Z,28.90
2018-08-03T23:19:51.611Z,28.88
2018-08-03T23:22:20.756Z,28.86
2018-08-03T23:24:49.575Z,28.84
2018-08-03T23:27:19.344Z,28.84
2018-08-03T23:29:48.459Z,28.84
2018-08-03T23:32:17.532Z,28.82
2018-08-03T23:34:47.284Z,28.80
2018-08-03T23:37:16.351Z,28.75
2018-08-03T23:39:45.432Z,28.70
2018-08-03T23:42:15.060Z,28.70
2018-08-03T23:44:44.281Z,28.67
2018-08-03T23:47:13.377Z,28.68
2018-08-03T23:49:43.597Z,28.63
2018-08-03T23:52:13.016Z,28.61
2018-08-03T23:54:42.203Z,28.59
2018-08-03T23:57:11.644Z,28.58
2018-08-03T23:59:41.161Z,28.58
